sensor_id;sensor_type;location;lat;lon;timestamp;P1;durP1;ratioP1;P2;durP2;ratioP2
1679;SDS011;838;51.794;12.258;2023-04-03T00:01:12;4.67;;;2.40;;
1679;SDS011;838;51.794;12.258;2023-04-03T00:03:38;5.27;;;2.47;;
1679;SDS011;838;51.794;12.258;2023-04-03T00:06:04;4.87;;;2.40;;
1679;SDS011;838;51.794;12.258;2023-04-03T00:08:35;5.50;;;2.50;;
1679;SDS011;838;51.794;12.258;2023-04-03T00:11:01;7.27;;;2.30;;
1679;SDS011;838;51.794;12.258;2023-04-03T00:13:27;8.43;;;3.00;;
1679;SDS011;838;51.794;12.258;2023-04-03T00:15:53;3.47;;;2.23;;
1679;SDS011;838;51.794;12.258;2023-04-03T00:18:19;8.27;;;3.53;;
1679;SDS011;838;51.794;12.258;2023-04-03T00:20:45;3.93;;;2.43;;
1679;SDS011;838;51.794;12.258;2023-04-03T00:23:11;8.23;;;2.87;;
1679;SDS011;838;51.794;12.258;2023-04-03T00:25:37;5.63;;;2.37;;
1679;SDS011;838;51.794;12.258;2023-04-03T00:28:03;7.10;;;2.20;;
1679;SDS011;838;51.794;12.258;2023-04-03T00:30:30;4.07;;;2.63;;
1679;SDS011;838;51.794;12.258;2023-04-03T00:32:55;5.53;;;2.30;;
1679;SDS011;838;51.794;12.258;2023-04-03T00:35:22;4.40;;;2.10;;
1679;SDS011;838;51.794;12.258;2023-04-03T00:37:50;4.60;;;2.50;;
1679;SDS011;838;51.794;12.258;2023-04-03T00:40:17;7.00;;;2.43;;
1679;SDS011;838;51.794;12.258;2023-04-03T00:42:43;7.37;;;2.33;;
1679;SDS011;838;51.794;12.258;2023-04-03T00:45:22;10.67;;;2.20;;
1679;SDS011;838;51.794;12.258;2023-04-03T00:47:52;9.20;;;2.43;;
1679;SDS011;838;51.794;12.258;2023-04-03T00:50:19;6.30;;;2.30;;
1679;SDS011;838;51.794;12.258;2023-04-03T00:52:45;6.13;;;2.13;;
1679;SDS011;838;51.794;12.258;2023-04-03T00:55:13;4.77;;;3.00;;
1679;SDS011;838;51.794;12.258;2023-04-03T00:57:40;7.03;;;2.50;;
1679;SDS011;838;51.794;12.258;2023-04-03T01:00:11;6.13;;;2.10;;
1679;SDS011;838;51.794;12.258;2023-04-03T01:02:41;5.10;;;2.00;;
1679;SDS011;838;51.794;12.258;2023-04-03T01:05:07;3.80;;;2.10;;
1679;SDS011;838;51.794;12.258;2023-04-03T01:07:33;4.93;;;2.10;;
1679;SDS011;838;51.794;12.258;2023-04-03T01:10:01;5.20;;;2.37;;
1679;SDS011;838;51.794;12.258;2023-04-03T01:12:31;5.47;;;2.30;;
1679;SDS011;838;51.794;12.258;2023-04-03T01:15:00;4.63;;;1.90;;
1679;SDS011;838;51.794;12.258;2023-04-03T01:17:35;6.00;;;2.10;;
1679;SDS011;838;51.794;12.258;2023-04-03T01:25:39;6.03;;;2.70;;
1679;SDS011;838;51.794;12.258;2023-04-03T01:28:26;3.80;;;2.17;;
1679;SDS011;838;51.794;12.258;2023-04-03T01:33:31;6.77;;;2.37;;
1679;SDS011;838;51.794;12.258;2023-04-03T01:35:57;8.40;;;2.57;;
1679;SDS011;838;51.794;12.258;2023-04-03T01:38:23;4.80;;;2.30;;
1679;SDS011;838;51.794;12.258;2023-04-03T01:40:49;4.83;;;2.33;;
1679;SDS011;838;51.794;12.258;2023-04-03T01:43:15;3.40;;;1.97;;
1679;SDS011;838;51.794;12.258;2023-04-03T01:45:41;3.90;;;2.33;;
1679;SDS011;838;51.794;12.258;2023-04-03T01:48:07;5.20;;;2.87;;
1679;SDS011;838;51.794;12.258;2023-04-03T01:50:32;6.43;;;3.03;;
1679;SDS011;838;51.794;12.258;2023-04-03T01:52:59;4.53;;;2.50;;
1679;SDS011;838;51.794;12.258;2023-04-03T01:55:24;5.60;;;2.43;;
1679;SDS011;838;51.794;12.258;2023-04-03T01:57:50;5.60;;;2.37;;
1679;SDS011;838;51.794;12.258;2023-04-03T02:00:16;7.00;;;3.00;;
1679;SDS011;838;51.794;12.258;2023-04-03T02:02:42;4.07;;;2.03;;
1679;SDS011;838;51.794;12.258;2023-04-03T02:05:07;6.17;;;2.40;;
1679;SDS011;838;51.794;12.258;2023-04-03T02:07:33;7.43;;;2.37;;
1679;SDS011;838;51.794;12.258;2023-04-03T02:09:59;6.83;;;2.87;;
1679;SDS011;838;51.794;12.258;2023-04-03T02:12:25;4.17;;;2.33;;
1679;SDS011;838;51.794;12.258;2023-04-03T02:14:51;5.40;;;2.70;;
1679;SDS011;838;51.794;12.258;2023-04-03T02:17:16;4.77;;;2.27;;
1679;SDS011;838;51.794;12.258;2023-04-03T02:19:42;5.90;;;2.87;;
1679;SDS011;838;51.794;12.258;2023-04-03T02:22:09;3.77;;;2.00;;
1679;SDS011;838;51.794;12.258;2023-04-03T02:24:35;9.00;;;2.80;;
1679;SDS011;838;51.794;12.258;2023-04-03T02:27:01;9.67;;;2.33;;
1679;SDS011;838;51.794;12.258;2023-04-03T02:29:26;3.93;;;2.30;;
1679;SDS011;838;51.794;12.258;2023-04-03T02:31:52;4.80;;;2.33;;
1679;SDS011;838;51.794;12.258;2023-04-03T02:34:18;8.13;;;2.67;;
1679;SDS011;838;51.794;12.258;2023-04-03T02:36:43;5.50;;;3.30;;
1679;SDS011;838;51.794;12.258;2023-04-03T02:39:10;4.83;;;2.40;;
1679;SDS011;838;51.794;12.258;2023-04-03T02:41:36;7.43;;;3.47;;
1679;SDS011;838;51.794;12.258;2023-04-03T02:44:02;5.93;;;2.23;;
1679;SDS011;838;51.794;12.258;2023-04-03T02:46:30;5.23;;;2.60;;
1679;SDS011;838;51.794;12.258;2023-04-03T02:49:02;6.20;;;2.60;;
1679;SDS011;838;51.794;12.258;2023-04-03T02:51:28;3.63;;;2.63;;
1679;SDS011;838;51.794;12.258;2023-04-03T02:53:53;7.20;;;2.60;;
1679;SDS011;838;51.794;12.258;2023-04-03T02:56:19;4.20;;;2.17;;
1679;SDS011;838;51.794;12.258;2023-04-03T02:58:46;5.37;;;2.33;;
1679;SDS011;838;51.794;12.258;2023-04-03T03:01:12;9.03;;;2.20;;
1679;SDS011;838;51.794;12.258;2023-04-03T03:03:38;4.43;;;2.47;;
1679;SDS011;838;51.794;12.258;2023-04-03T03:06:04;11.40;;;2.70;;
1679;SDS011;838;51.794;12.258;2023-04-03T03:08:31;5.80;;;2.63;;
1679;SDS011;838;51.794;12.258;2023-04-03T03:10:57;4.13;;;2.60;;
1679;SDS011;838;51.794;12.258;2023-04-03T03:13:23;4.33;;;2.27;;
1679;SDS011;838;51.794;12.258;2023-04-03T03:15:49;4.70;;;2.10;;
1679;SDS011;838;51.794;12.258;2023-04-03T03:18:15;3.60;;;2.40;;
1679;SDS011;838;51.794;12.258;2023-04-03T03:20:41;4.10;;;2.37;;
1679;SDS011;838;51.794;12.258;2023-04-03T03:23:06;3.73;;;2.30;;
1679;SDS011;838;51.794;12.258;2023-04-03T03:25:32;7.93;;;2.43;;
1679;SDS011;838;51.794;12.258;2023-04-03T03:27:58;4.73;;;2.27;;
1679;SDS011;838;51.794;12.258;2023-04-03T03:30:23;6.60;;;2.27;;
1679;SDS011;838;51.794;12.258;2023-04-03T03:32:50;7.13;;;2.60;;
1679;SDS011;838;51.794;12.258;2023-04-03T03:35:15;4.67;;;2.47;;
1679;SDS011;838;51.794;12.258;2023-04-03T03:37:41;8.40;;;2.50;;
1679;SDS011;838;51.794;12.258;2023-04-03T03:40:07;7.77;;;2.50;;
1679;SDS011;838;51.794;12.258;2023-04-03T03:42:33;6.63;;;2.40;;
1679;SDS011;838;51.794;12.258;2023-04-03T03:44:59;4.00;;;2.50;;
1679;SDS011;838;51.794;12.258;2023-04-03T03:47:25;4.83;;;2.73;;
1679;SDS011;838;51.794;12.258;2023-04-03T03:49:51;4.20;;;2.57;;
1679;SDS011;838;51.794;12.258;2023-04-03T03:52:16;4.90;;;2.70;;
1679;SDS011;838;51.794;12.258;2023-04-03T03:54:42;5.00;;;2.27;;
1679;SDS011;838;51.794;12.258;2023-04-03T03:57:08;6.20;;;3.80;;
1679;SDS011;838;51.794;12.258;2023-04-03T03:59:33;5.03;;;2.23;;
1679;SDS011;838;51.794;12.258;2023-04-03T04:01:59;5.17;;;3.00;;
1679;SDS011;838;51.794;12.258;2023-04-03T04:04:25;6.17;;;2.50;;
1679;SDS011;838;51.794;12.258;2023-04-03T04:06:51;4.83;;;2.43;;
1679;SDS011;838;51.794;12.258;2023-04-03T04:09:17;9.10;;;2.80;;
1679;SDS011;838;51.794;12.258;2023-04-03T04:11:43;8.43;;;3.30;;
1679;SDS011;838;51.794;12.258;2023-04-03T04:14:10;5.93;;;2.20;;
1679;SDS011;838;51.794;12.258;2023-04-03T04:16:37;7.47;;;3.10;;
1679;SDS011;838;51.794;12.258;2023-04-03T04:19:03;9.47;;;2.90;;
1679;SDS011;838;51.794;12.258;2023-04-03T04:21:28;4.70;;;2.33;;
1679;SDS011;838;51.794;12.258;2023-04-03T04:23:54;4.70;;;2.80;;
1679;SDS011;838;51.794;12.258;2023-04-03T04:26:20;3.57;;;2.00;;
1679;SDS011;838;51.794;12.258;2023-04-03T04:28:46;7.37;;;2.30;;
1679;SDS011;838;51.794;12.258;2023-04-03T04:31:11;10.23;;;2.83;;
1679;SDS011;838;51.794;12.258;2023-04-03T04:33:37;6.13;;;2.63;;
1679;SDS011;838;51.794;12.258;2023-04-03T04:36:03;4.10;;;2.00;;
1679;SDS011;838;51.794;12.258;2023-04-03T04:38:29;9.23;;;2.50;;
1679;SDS011;838;51.794;12.258;2023-04-03T04:40:54;4.87;;;2.20;;
1679;SDS011;838;51.794;12.258;2023-04-03T04:43:20;5.80;;;2.80;;
1679;SDS011;838;51.794;12.258;2023-04-03T04:45:46;3.80;;;2.90;;
1679;SDS011;838;51.794;12.258;2023-04-03T04:48:12;5.20;;;3.30;;
1679;SDS011;838;51.794;12.258;2023-04-03T04:50:37;6.70;;;2.77;;
1679;SDS011;838;51.794;12.258;2023-04-03T04:53:03;6.70;;;2.53;;
1679;SDS011;838;51.794;12.258;2023-04-03T04:55:30;7.23;;;2.43;;
1679;SDS011;838;51.794;12.258;2023-04-03T04:57:55;10.80;;;2.70;;
1679;SDS011;838;51.794;12.258;2023-04-03T05:00:21;9.57;;;2.93;;
1679;SDS011;838;51.794;12.258;2023-04-03T05:02:47;4.90;;;3.10;;
1679;SDS011;838;51.794;12.258;2023-04-03T05:05:12;4.20;;;2.87;;
1679;SDS011;838;51.794;12.258;2023-04-03T05:07:38;9.87;;;3.30;;
1679;SDS011;838;51.794;12.258;2023-04-03T05:10:04;8.00;;;2.57;;
1679;SDS011;838;51.794;12.258;2023-04-03T05:12:31;6.40;;;3.00;;
1679;SDS011;838;51.794;12.258;2023-04-03T05:14:57;6.63;;;2.90;;
1679;SDS011;838;51.794;12.258;2023-04-03T05:17:23;6.60;;;2.50;;
1679;SDS011;838;51.794;12.258;2023-04-03T05:19:48;6.87;;;2.70;;
1679;SDS011;838;51.794;12.258;2023-04-03T05:22:14;6.23;;;3.47;;
1679;SDS011;838;51.794;12.258;2023-04-03T05:24:40;7.07;;;2.90;;
1679;SDS011;838;51.794;12.258;2023-04-03T05:27:05;5.97;;;3.23;;
1679;SDS011;838;51.794;12.258;2023-04-03T05:29:31;5.17;;;3.10;;
1679;SDS011;838;51.794;12.258;2023-04-03T05:31:57;7.60;;;2.90;;
1679;SDS011;838;51.794;12.258;2023-04-03T05:34:22;5.50;;;3.43;;
1679;SDS011;838;51.794;12.258;2023-04-03T05:36:48;9.20;;;3.27;;
1679;SDS011;838;51.794;12.258;2023-04-03T05:39:14;5.60;;;2.03;;
1679;SDS011;838;51.794;12.258;2023-04-03T05:41:39;3.83;;;1.80;;
1679;SDS011;838;51.794;12.258;2023-04-03T05:44:05;4.47;;;2.50;;
1679;SDS011;838;51.794;12.258;2023-04-03T05:46:31;5.20;;;2.20;;
1679;SDS011;838;51.794;12.258;2023-04-03T05:48:57;3.90;;;2.17;;
1679;SDS011;838;51.794;12.258;2023-04-03T05:51:33;6.40;;;2.40;;
1679;SDS011;838;51.794;12.258;2023-04-03T05:54:22;5.13;;;2.23;;
1679;SDS011;838;51.794;12.258;2023-04-03T05:56:50;4.10;;;2.10;;
1679;SDS011;838;51.794;12.258;2023-04-03T05:59:16;5.13;;;2.40;;
1679;SDS011;838;51.794;12.258;2023-04-03T06:01:43;5.80;;;1.87;;
1679;SDS011;838;51.794;12.258;2023-04-03T06:04:09;5.53;;;2.20;;
1679;SDS011;838;51.794;12.258;2023-04-03T06:06:43;5.03;;;2.40;;
1679;SDS011;838;51.794;12.258;2023-04-03T06:09:11;4.63;;;1.90;;
1679;SDS011;838;51.794;12.258;2023-04-03T06:11:37;4.20;;;2.20;;
1679;SDS011;838;51.794;12.258;2023-04-03T06:14:04;7.13;;;2.17;;
1679;SDS011;838;51.794;12.258;2023-04-03T06:16:29;4.10;;;1.97;;
1679;SDS011;838;51.794;12.258;2023-04-03T06:18:55;5.50;;;1.77;;
1679;SDS011;838;51.794;12.258;2023-04-03T06:21:21;5.87;;;2.10;;
1679;SDS011;838;51.794;12.258;2023-04-03T06:23:46;4.80;;;2.20;;
1679;SDS011;838;51.794;12.258;2023-04-03T06:26:12;3.53;;;1.47;;
1679;SDS011;838;51.794;12.258;2023-04-03T06:28:38;3.83;;;1.80;;
1679;SDS011;838;51.794;12.258;2023-04-03T06:31:03;6.13;;;2.30;;
1679;SDS011;838;51.794;12.258;2023-04-03T06:33:29;3.87;;;1.60;;
1679;SDS011;838;51.794;12.258;2023-04-03T06:35:58;4.70;;;2.10;;
1679;SDS011;838;51.794;12.258;2023-04-03T06:38:24;5.53;;;1.90;;
1679;SDS011;838;51.794;12.258;2023-04-03T06:40:50;9.20;;;1.80;;
1679;SDS011;838;51.794;12.258;2023-04-03T06:43:16;4.57;;;1.60;;
1679;SDS011;838;51.794;12.258;2023-04-03T06:45:42;4.50;;;1.23;;
1679;SDS011;838;51.794;12.258;2023-04-03T06:48:08;4.97;;;2.23;;
1679;SDS011;838;51.794;12.258;2023-04-03T06:50:34;3.67;;;1.50;;
1679;SDS011;838;51.794;12.258;2023-04-03T06:53:00;4.30;;;1.63;;
1679;SDS011;838;51.794;12.258;2023-04-03T06:55:26;13.90;;;2.00;;
1679;SDS011;838;51.794;12.258;2023-04-03T06:57:52;4.20;;;1.70;;
1679;SDS011;838;51.794;12.258;2023-04-03T07:00:17;3.97;;;1.70;;
1679;SDS011;838;51.794;12.258;2023-04-03T07:02:43;4.33;;;1.50;;
1679;SDS011;838;51.794;12.258;2023-04-03T07:05:09;3.80;;;1.70;;
1679;SDS011;838;51.794;12.258;2023-04-03T07:07:35;3.60;;;1.60;;
1679;SDS011;838;51.794;12.258;2023-04-03T07:10:02;4.80;;;2.10;;
1679;SDS011;838;51.794;12.258;2023-04-03T07:12:28;4.63;;;1.60;;
1679;SDS011;838;51.794;12.258;2023-04-03T07:14:54;5.83;;;2.33;;
1679;SDS011;838;51.794;12.258;2023-04-03T07:17:20;3.60;;;1.50;;
1679;SDS011;838;51.794;12.258;2023-04-03T07:19:46;8.70;;;1.97;;
1679;SDS011;838;51.794;12.258;2023-04-03T07:22:13;4.93;;;1.50;;
1679;SDS011;838;51.794;12.258;2023-04-03T07:24:38;4.40;;;1.70;;
1679;SDS011;838;51.794;12.258;2023-04-03T07:27:04;4.03;;;1.83;;
1679;SDS011;838;51.794;12.258;2023-04-03T07:29:30;5.83;;;2.00;;
1679;SDS011;838;51.794;12.258;2023-04-03T07:31:56;4.70;;;2.00;;
1679;SDS011;838;51.794;12.258;2023-04-03T07:34:22;4.93;;;1.43;;
1679;SDS011;838;51.794;12.258;2023-04-03T07:36:48;2.97;;;1.60;;
1679;SDS011;838;51.794;12.258;2023-04-03T07:39:13;5.20;;;1.80;;
1679;SDS011;838;51.794;12.258;2023-04-03T07:41:39;3.90;;;1.60;;
1679;SDS011;838;51.794;12.258;2023-04-03T07:44:05;8.67;;;1.70;;
1679;SDS011;838;51.794;12.258;2023-04-03T07:46:31;4.30;;;1.93;;
1679;SDS011;838;51.794;12.258;2023-04-03T07:48:57;6.23;;;2.00;;
1679;SDS011;838;51.794;12.258;2023-04-03T07:51:23;5.37;;;1.70;;
1679;SDS011;838;51.794;12.258;2023-04-03T07:53:49;6.27;;;1.80;;
1679;SDS011;838;51.794;12.258;2023-04-03T07:56:16;4.47;;;1.77;;
1679;SDS011;838;51.794;12.258;2023-04-03T07:58:42;4.20;;;2.17;;
1679;SDS011;838;51.794;12.258;2023-04-03T08:01:08;5.17;;;1.73;;
1679;SDS011;838;51.794;12.258;2023-04-03T08:03:33;3.97;;;1.80;;
1679;SDS011;838;51.794;12.258;2023-04-03T08:06:03;3.43;;;1.53;;
1679;SDS011;838;51.794;12.258;2023-04-03T08:08:30;3.70;;;1.80;;
1679;SDS011;838;51.794;12.258;2023-04-03T08:10:57;4.73;;;1.50;;
1679;SDS011;838;51.794;12.258;2023-04-03T08:13:24;5.70;;;1.87;;
1679;SDS011;838;51.794;12.258;2023-04-03T08:15:50;4.10;;;1.67;;
1679;SDS011;838;51.794;12.258;2023-04-03T08:18:15;4.37;;;1.67;;
1679;SDS011;838;51.794;12.258;2023-04-03T08:20:41;3.70;;;1.87;;
1679;SDS011;838;51.794;12.258;2023-04-03T08:23:07;5.57;;;1.60;;
1679;SDS011;838;51.794;12.258;2023-04-03T08:25:37;3.30;;;1.53;;
1679;SDS011;838;51.794;12.258;2023-04-03T08:28:04;5.57;;;1.80;;
1679;SDS011;838;51.794;12.258;2023-04-03T08:30:31;6.40;;;2.27;;
1679;SDS011;838;51.794;12.258;2023-04-03T08:32:59;2.50;;;1.40;;
1679;SDS011;838;51.794;12.258;2023-04-03T08:35:26;3.23;;;1.60;;
1679;SDS011;838;51.794;12.258;2023-04-03T08:37:52;4.93;;;1.43;;
1679;SDS011;838;51.794;12.258;2023-04-03T08:40:18;4.33;;;1.47;;
1679;SDS011;838;51.794;12.258;2023-04-03T08:48:27;3.83;;;1.63;;
1679;SDS011;838;51.794;12.258;2023-04-03T08:51:04;3.40;;;1.83;;
1679;SDS011;838;51.794;12.258;2023-04-03T08:53:40;7.00;;;1.77;;
1679;SDS011;838;51.794;12.258;2023-04-03T08:56:09;4.57;;;1.87;;
1679;SDS011;838;51.794;12.258;2023-04-03T08:58:50;4.33;;;1.97;;
1679;SDS011;838;51.794;12.258;2023-04-03T09:01:23;6.90;;;2.03;;
1679;SDS011;838;51.794;12.258;2023-04-03T09:04:10;4.30;;;1.50;;
1679;SDS011;838;51.794;12.258;2023-04-03T09:06:41;4.20;;;1.70;;
1679;SDS011;838;51.794;12.258;2023-04-03T09:11:56;4.10;;;1.83;;
1679;SDS011;838;51.794;12.258;2023-04-03T09:17:27;3.90;;;1.60;;
1679;SDS011;838;51.794;12.258;2023-04-03T09:22:52;4.40;;;1.57;;
1679;SDS011;838;51.794;12.258;2023-04-03T09:25:25;4.40;;;1.70;;
1679;SDS011;838;51.794;12.258;2023-04-03T09:28:02;3.23;;;1.33;;
1679;SDS011;838;51.794;12.258;2023-04-03T09:30:35;3.33;;;1.47;;
1679;SDS011;838;51.794;12.258;2023-04-03T09:33:02;3.87;;;1.50;;
1679;SDS011;838;51.794;12.258;2023-04-03T09:35:32;4.50;;;1.33;;
1679;SDS011;838;51.794;12.258;2023-04-03T09:40:37;5.03;;;2.07;;
1679;SDS011;838;51.794;12.258;2023-04-03T09:43:25;7.63;;;1.70;;
1679;SDS011;838;51.794;12.258;2023-04-03T09:45:53;5.97;;;1.70;;
1679;SDS011;838;51.794;12.258;2023-04-03T09:48:21;3.50;;;1.87;;
1679;SDS011;838;51.794;12.258;2023-04-03T09:50:59;4.53;;;1.50;;
1679;SDS011;838;51.794;12.258;2023-04-03T09:56:02;3.43;;;1.60;;
1679;SDS011;838;51.794;12.258;2023-04-03T09:58:48;4.57;;;1.70;;
1679;SDS011;838;51.794;12.258;2023-04-03T10:01:29;6.23;;;2.27;;
1679;SDS011;838;51.794;12.258;2023-04-03T10:04:14;4.07;;;1.70;;
1679;SDS011;838;51.794;12.258;2023-04-03T10:06:43;3.20;;;1.70;;
1679;SDS011;838;51.794;12.258;2023-04-03T10:14:29;6.67;;;2.00;;
1679;SDS011;838;51.794;12.258;2023-04-03T10:17:02;3.57;;;1.67;;
1679;SDS011;838;51.794;12.258;2023-04-03T10:20:23;4.10;;;1.90;;
1679;SDS011;838;51.794;12.258;2023-04-03T10:28:31;4.87;;;1.70;;
1679;SDS011;838;51.794;12.258;2023-04-03T10:44:40;5.30;;;1.60;;
1679;SDS011;838;51.794;12.258;2023-04-03T10:47:20;3.40;;;1.80;;
1679;SDS011;838;51.794;12.258;2023-04-03T10:52:37;3.70;;;1.50;;
1679;SDS011;838;51.794;12.258;2023-04-03T10:55:22;3.93;;;1.63;;
1679;SDS011;838;51.794;12.258;2023-04-03T10:57:59;3.57;;;1.80;;
1679;SDS011;838;51.794;12.258;2023-04-03T11:00:37;5.17;;;1.67;;
1679;SDS011;838;51.794;12.258;2023-04-03T11:03:11;4.23;;;1.90;;
1679;SDS011;838;51.794;12.258;2023-04-03T11:05:51;5.13;;;1.57;;
1679;SDS011;838;51.794;12.258;2023-04-03T11:11:06;4.63;;;1.83;;
1679;SDS011;838;51.794;12.258;2023-04-03T11:13:44;4.43;;;1.80;;
1679;SDS011;838;51.794;12.258;2023-04-03T11:16:20;2.73;;;1.50;;
1679;SDS011;838;51.794;12.258;2023-04-03T11:18:54;3.47;;;1.60;;
1679;SDS011;838;51.794;12.258;2023-04-03T11:21:25;6.13;;;1.53;;
1679;SDS011;838;51.794;12.258;2023-04-03T11:23:54;2.97;;;1.53;;
1679;SDS011;838;51.794;12.258;2023-04-03T11:26:24;3.33;;;1.80;;
1679;SDS011;838;51.794;12.258;2023-04-03T11:29:05;3.50;;;1.77;;
1679;SDS011;838;51.794;12.258;2023-04-03T11:36:59;3.60;;;1.70;;
1679;SDS011;838;51.794;12.258;2023-04-03T11:39:28;3.07;;;1.50;;
1679;SDS011;838;51.794;12.258;2023-04-03T11:50:47;3.77;;;1.77;;
1679;SDS011;838;51.794;12.258;2023-04-03T11:55:42;3.40;;;1.50;;
1679;SDS011;838;51.794;12.258;2023-04-03T12:00:57;4.40;;;1.90;;
1679;SDS011;838;51.794;12.258;2023-04-03T12:13:38;3.97;;;1.70;;
1679;SDS011;838;51.794;12.258;2023-04-03T12:16:33;3.27;;;1.57;;
1679;SDS011;838;51.794;12.258;2023-04-03T12:19:02;4.37;;;1.90;;
1679;SDS011;838;51.794;12.258;2023-04-03T12:29:19;3.60;;;1.50;;
1679;SDS011;838;51.794;12.258;2023-04-03T12:43:36;4.50;;;2.00;;
1679;SDS011;838;51.794;12.258;2023-04-03T12:46:23;3.87;;;1.80;;
1679;SDS011;838;51.794;12.258;2023-04-03T12:48:52;3.70;;;2.00;;
1679;SDS011;838;51.794;12.258;2023-04-03T12:51:40;5.60;;;1.90;;
1679;SDS011;838;51.794;12.258;2023-04-03T12:54:18;4.30;;;1.53;;
1679;SDS011;838;51.794;12.258;2023-04-03T12:56:47;5.10;;;1.87;;
1679;SDS011;838;51.794;12.258;2023-04-03T12:59:24;2.53;;;1.60;;
1679;SDS011;838;51.794;12.258;2023-04-03T13:02:00;2.80;;;1.50;;
1679;SDS011;838;51.794;12.258;2023-04-03T13:04:27;5.00;;;1.97;;
1679;SDS011;838;51.794;12.258;2023-04-03T13:06:55;4.87;;;2.43;;
1679;SDS011;838;51.794;12.258;2023-04-03T13:09:22;4.50;;;1.60;;
1679;SDS011;838;51.794;12.258;2023-04-03T13:11:57;2.73;;;1.67;;
1679;SDS011;838;51.794;12.258;2023-04-03T13:14:25;10.03;;;1.90;;
1679;SDS011;838;51.794;12.258;2023-04-03T13:17:15;4.03;;;1.70;;
1679;SDS011;838;51.794;12.258;2023-04-03T13:19:40;5.50;;;1.87;;
1679;SDS011;838;51.794;12.258;2023-04-03T13:24:53;3.47;;;2.00;;
1679;SDS011;838;51.794;12.258;2023-04-03T13:27:22;3.90;;;1.73;;
1679;SDS011;838;51.794;12.258;2023-04-03T13:29:52;6.37;;;2.10;;
1679;SDS011;838;51.794;12.258;2023-04-03T13:32:21;2.30;;;1.40;;
1679;SDS011;838;51.794;12.258;2023-04-03T13:34:49;3.43;;;1.80;;
1679;SDS011;838;51.794;12.258;2023-04-03T13:37:32;3.00;;;1.60;;
1679;SDS011;838;51.794;12.258;2023-04-03T13:42:32;6.00;;;2.30;;
1679;SDS011;838;51.794;12.258;2023-04-03T13:45:19;6.63;;;1.50;;
1679;SDS011;838;51.794;12.258;2023-04-03T13:48:06;4.10;;;1.87;;
1679;SDS011;838;51.794;12.258;2023-04-03T13:50:50;3.07;;;1.93;;
1679;SDS011;838;51.794;12.258;2023-04-03T13:53:24;4.37;;;1.70;;
1679;SDS011;838;51.794;12.258;2023-04-03T13:58:27;3.00;;;1.93;;
1679;SDS011;838;51.794;12.258;2023-04-03T14:06:04;4.50;;;2.10;;
1679;SDS011;838;51.794;12.258;2023-04-03T14:08:31;3.07;;;1.50;;
1679;SDS011;838;51.794;12.258;2023-04-03T14:10:57;4.23;;;1.93;;
1679;SDS011;838;51.794;12.258;2023-04-03T14:13:23;3.80;;;1.77;;
1679;SDS011;838;51.794;12.258;2023-04-03T14:15:49;6.87;;;2.07;;
1679;SDS011;838;51.794;12.258;2023-04-03T14:18:19;3.13;;;1.63;;
1679;SDS011;838;51.794;12.258;2023-04-03T14:20:45;2.83;;;1.73;;
1679;SDS011;838;51.794;12.258;2023-04-03T14:23:11;5.10;;;1.93;;
1679;SDS011;838;51.794;12.258;2023-04-03T14:25:38;2.40;;;1.67;;
1679;SDS011;838;51.794;12.258;2023-04-03T14:28:12;3.30;;;1.90;;
1679;SDS011;838;51.794;12.258;2023-04-03T14:30:44;4.30;;;1.80;;
1679;SDS011;838;51.794;12.258;2023-04-03T14:33:14;6.63;;;2.10;;
1679;SDS011;838;51.794;12.258;2023-04-03T14:35:45;3.03;;;1.70;;
1679;SDS011;838;51.794;12.258;2023-04-03T14:38:30;2.97;;;1.70;;
1679;SDS011;838;51.794;12.258;2023-04-03T14:40:56;2.47;;;1.50;;
1679;SDS011;838;51.794;12.258;2023-04-03T14:43:23;2.80;;;1.60;;
1679;SDS011;838;51.794;12.258;2023-04-03T14:45:49;3.00;;;1.97;;
1679;SDS011;838;51.794;12.258;2023-04-03T14:48:17;2.60;;;1.60;;
1679;SDS011;838;51.794;12.258;2023-04-03T14:50:45;6.03;;;1.93;;
1679;SDS011;838;51.794;12.258;2023-04-03T14:53:12;4.63;;;2.07;;
1679;SDS011;838;51.794;12.258;2023-04-03T14:55:40;2.77;;;1.50;;
1679;SDS011;838;51.794;12.258;2023-04-03T14:58:12;3.60;;;1.67;;
1679;SDS011;838;51.794;12.258;2023-04-03T15:00:43;3.80;;;2.93;;
1679;SDS011;838;51.794;12.258;2023-04-03T15:03:17;2.97;;;1.57;;
1679;SDS011;838;51.794;12.258;2023-04-03T15:05:46;2.70;;;1.53;;
1679;SDS011;838;51.794;12.258;2023-04-03T15:08:23;2.53;;;1.40;;
1679;SDS011;838;51.794;12.258;2023-04-03T15:10:51;4.30;;;1.70;;
1679;SDS011;838;51.794;12.258;2023-04-03T15:13:23;3.00;;;1.60;;
1679;SDS011;838;51.794;12.258;2023-04-03T15:15:51;2.60;;;1.60;;
1679;SDS011;838;51.794;12.258;2023-04-03T15:18:22;3.40;;;1.87;;
1679;SDS011;838;51.794;12.258;2023-04-03T15:20:51;3.20;;;1.90;;
1679;SDS011;838;51.794;12.258;2023-04-03T15:23:17;3.43;;;1.70;;
1679;SDS011;838;51.794;12.258;2023-04-03T15:25:44;4.00;;;1.43;;
1679;SDS011;838;51.794;12.258;2023-04-03T15:28:32;2.87;;;1.97;;
1679;SDS011;838;51.794;12.258;2023-04-03T15:31:00;3.50;;;1.60;;
1679;SDS011;838;51.794;12.258;2023-04-03T15:33:27;3.37;;;1.60;;
1679;SDS011;838;51.794;12.258;2023-04-03T15:35:52;6.13;;;2.30;;
1679;SDS011;838;51.794;12.258;2023-04-03T15:38:18;7.27;;;2.23;;
1679;SDS011;838;51.794;12.258;2023-04-03T15:40:44;2.60;;;1.70;;
1679;SDS011;838;51.794;12.258;2023-04-03T15:43:12;4.93;;;2.03;;
1679;SDS011;838;51.794;12.258;2023-04-03T15:45:39;2.90;;;1.90;;
1679;SDS011;838;51.794;12.258;2023-04-03T15:48:05;2.70;;;1.50;;
1679;SDS011;838;51.794;12.258;2023-04-03T15:50:32;3.63;;;1.73;;
1679;SDS011;838;51.794;12.258;2023-04-03T15:52:58;6.97;;;1.93;;
1679;SDS011;838;51.794;12.258;2023-04-03T15:55:26;3.90;;;1.80;;
1679;SDS011;838;51.794;12.258;2023-04-03T15:57:54;7.70;;;1.80;;
1679;SDS011;838;51.794;12.258;2023-04-03T16:00:20;3.53;;;1.80;;
1679;SDS011;838;51.794;12.258;2023-04-03T16:02:47;5.70;;;1.90;;
1679;SDS011;838;51.794;12.258;2023-04-03T16:05:15;2.17;;;1.40;;
1679;SDS011;838;51.794;12.258;2023-04-03T16:07:43;2.20;;;1.50;;
1679;SDS011;838;51.794;12.258;2023-04-03T16:10:11;4.37;;;1.70;;
1679;SDS011;838;51.794;12.258;2023-04-03T16:12:38;3.50;;;1.70;;
1679;SDS011;838;51.794;12.258;2023-04-03T16:15:04;3.67;;;1.83;;
1679;SDS011;838;51.794;12.258;2023-04-03T16:17:31;4.23;;;1.73;;
1679;SDS011;838;51.794;12.258;2023-04-03T16:19:58;3.40;;;1.70;;
1679;SDS011;838;51.794;12.258;2023-04-03T16:22:24;4.97;;;1.83;;
1679;SDS011;838;51.794;12.258;2023-04-03T16:24:52;3.80;;;1.80;;
1679;SDS011;838;51.794;12.258;2023-04-03T16:27:18;3.50;;;2.10;;
1679;SDS011;838;51.794;12.258;2023-04-03T16:29:44;3.23;;;2.00;;
1679;SDS011;838;51.794;12.258;2023-04-03T16:32:10;3.67;;;1.80;;
1679;SDS011;838;51.794;12.258;2023-04-03T16:34:37;3.90;;;1.70;;
1679;SDS011;838;51.794;12.258;2023-04-03T16:37:03;3.50;;;1.63;;
1679;SDS011;838;51.794;12.258;2023-04-03T16:39:28;4.00;;;1.63;;
1679;SDS011;838;51.794;12.258;2023-04-03T16:41:55;3.20;;;1.90;;
1679;SDS011;838;51.794;12.258;2023-04-03T16:44:20;2.20;;;1.47;;
1679;SDS011;838;51.794;12.258;2023-04-03T16:46:46;2.67;;;1.80;;
1679;SDS011;838;51.794;12.258;2023-04-03T16:49:12;3.17;;;1.93;;
1679;SDS011;838;51.794;12.258;2023-04-03T16:51:37;4.17;;;1.90;;
1679;SDS011;838;51.794;12.258;2023-04-03T16:54:03;2.97;;;1.80;;
1679;SDS011;838;51.794;12.258;2023-04-03T16:56:29;4.30;;;1.63;;
1679;SDS011;838;51.794;12.258;2023-04-03T16:58:55;4.30;;;1.93;;
1679;SDS011;838;51.794;12.258;2023-04-03T17:01:21;3.90;;;1.53;;
1679;SDS011;838;51.794;12.258;2023-04-03T17:03:48;4.13;;;1.70;;
1679;SDS011;838;51.794;12.258;2023-04-03T17:06:18;4.03;;;1.80;;
1679;SDS011;838;51.794;12.258;2023-04-03T17:08:45;10.73;;;1.87;;
1679;SDS011;838;51.794;12.258;2023-04-03T17:11:13;2.63;;;1.50;;
1679;SDS011;838;51.794;12.258;2023-04-03T17:13:39;2.53;;;1.70;;
1679;SDS011;838;51.794;12.258;2023-04-03T17:16:05;4.10;;;1.83;;
1679;SDS011;838;51.794;12.258;2023-04-03T17:18:34;3.60;;;1.50;;
1679;SDS011;838;51.794;12.258;2023-04-03T17:21:01;3.10;;;1.60;;
1679;SDS011;838;51.794;12.258;2023-04-03T17:23:28;4.03;;;1.53;;